sensor_id;sensor_type;location;lat;lon;timestamp;pressure;altitude;pressure_sealevel;temperature;humidity
12951;BME280;6540;50.858;7.232;2023-04-04T00:01:02;51927.16;;;-142.34;26.44
12951;BME280;6540;50.858;7.232;2023-04-04T00:03:27;51931.19;;;-142.34;26.37
12951;BME280;6540;50.858;7.232;2023-04-04T00:05:52;51900.94;;;-142.34;26.61
12951;BME280;6540;50.858;7.232;2023-04-04T00:08:18;51917.06;;;-142.34;26.88
12951;BME280;6540;50.858;7.232;2023-04-04T00:10:43;51943.31;;;-142.34;27.17
12951;BME280;6540;50.858;7.232;2023-04-04T00:13:08;51915.06;;;-142.34;26.78
12951;BME280;6540;50.858;7.232;2023-04-04T00:15:34;51915.06;;;-142.34;26.70
12951;BME280;6540;50.858;7.232;2023-04-04T00:18:03;51963.47;;;-142.34;26.56
12951;BME280;6540;50.858;7.232;2023-04-04T00:20:29;51896.91;;;-142.34;26.69
12951;BME280;6540;50.858;7.232;2023-04-04T00:22:55;51959.44;;;-142.34;26.77
12951;BME280;6540;50.858;7.232;2023-04-04T00:25:21;51878.75;;;-142.34;26.66
12951;BME280;6540;50.858;7.232;2023-04-04T00:27:47;51907.00;;;-142.34;26.29
12951;BME280;6540;50.858;7.232;2023-04-04T00:30:13;51943.31;;;-142.34;27.46
12951;BME280;6540;50.858;7.232;2023-04-04T00:32:38;51923.13;;;-142.34;27.60
12951;BME280;6540;50.858;7.232;2023-04-04T00:35:04;51947.34;;;-142.34;27.07
12951;BME280;6540;50.858;7.232;2023-04-04T00:37:29;51931.19;;;-142.34;26.57
12951;BME280;6540;50.858;7.232;2023-04-04T00:39:57;51900.94;;;-142.34;26.83
12951;BME280;6540;50.858;7.232;2023-04-04T00:42:22;51921.13;;;-142.34;26.95
12951;BME280;6540;50.858;7.232;2023-04-04T00:44:47;51937.25;;;-142.34;27.36
12951;BME280;6540;50.858;7.232;2023-04-04T00:47:13;51917.06;;;-142.34;26.58
12951;BME280;6540;50.858;7.232;2023-04-04T00:49:39;51915.06;;;-142.34;26.67
12951;BME280;6540;50.858;7.232;2023-04-04T00:52:04;51909.00;;;-142.34;26.77
12951;BME280;6540;50.858;7.232;2023-04-04T00:54:31;51923.13;;;-142.34;27.62
12951;BME280;6540;50.858;7.232;2023-04-04T00:56:57;51911.03;;;-142.34;26.93
12951;BME280;6540;50.858;7.232;2023-04-04T00:59:25;51902.97;;;-142.34;27.53
12951;BME280;6540;50.858;7.232;2023-04-04T01:01:51;51870.69;;;-142.34;28.16
12951;BME280;6540;50.858;7.232;2023-04-04T01:04:17;51898.94;;;-142.34;29.21
12951;BME280;6540;50.858;7.232;2023-04-04T01:06:42;51898.94;;;-142.34;29.03
12951;BME280;6540;50.858;7.232;2023-04-04T01:09:08;51911.03;;;-142.34;28.29
12951;BME280;6540;50.858;7.232;2023-04-04T01:11:33;51931.19;;;-142.34;28.06
12951;BME280;6540;50.858;7.232;2023-04-04T01:13:59;51935.25;;;-142.34;27.28
12951;BME280;6540;50.858;7.232;2023-04-04T01:16:25;51917.06;;;-142.34;28.05
12951;BME280;6540;50.858;7.232;2023-04-04T01:18:52;51909.00;;;-142.34;28.58
12951;BME280;6540;50.858;7.232;2023-04-04T01:21:21;51917.06;;;-142.34;28.80
12951;BME280;6540;50.858;7.232;2023-04-04T01:24:03;51907.00;;;-142.34;27.81
12951;BME280;6540;50.858;7.232;2023-04-04T01:26:29;51907.00;;;-142.34;27.56
12951;BME280;6540;50.858;7.232;2023-04-04T01:28:56;51888.84;;;-142.34;28.05
12951;BME280;6540;50.858;7.232;2023-04-04T01:33:58;51927.16;;;-142.34;27.51
12951;BME280;6540;50.858;7.232;2023-04-04T01:36:47;51919.09;;;-142.34;28.21
12951;BME280;6540;50.858;7.232;2023-04-04T01:41:57;51931.19;;;-142.34;28.02
12951;BME280;6540;50.858;7.232;2023-04-04T01:44:24;51862.63;;;-142.34;28.41
12951;BME280;6540;50.858;7.232;2023-04-04T01:46:54;51890.84;;;-142.34;27.79
12951;BME280;6540;50.858;7.232;2023-04-04T01:49:20;51943.31;;;-142.34;27.53
12951;BME280;6540;50.858;7.232;2023-04-04T01:51:46;51943.31;;;-142.34;27.58
12951;BME280;6540;50.858;7.232;2023-04-04T01:54:13;51927.16;;;-142.34;27.34
12951;BME280;6540;50.858;7.232;2023-04-04T01:56:38;51947.34;;;-142.34;26.71
12951;BME280;6540;50.858;7.232;2023-04-04T01:59:03;51913.03;;;-142.34;26.34
12951;BME280;6540;50.858;7.232;2023-04-04T02:01:29;51931.19;;;-142.34;26.50
12951;BME280;6540;50.858;7.232;2023-04-04T02:03:54;51929.19;;;-142.34;26.99
12951;BME280;6540;50.858;7.232;2023-04-04T02:06:20;51927.16;;;-142.34;27.22
12951;BME280;6540;50.858;7.232;2023-04-04T02:08:46;51894.88;;;-142.34;27.17
12951;BME280;6540;50.858;7.232;2023-04-04T02:11:12;51945.31;;;-142.34;27.32
12951;BME280;6540;50.858;7.232;2023-04-04T02:13:37;51927.16;;;-142.34;27.36
12951;BME280;6540;50.858;7.232;2023-04-04T02:16:05;51884.81;;;-142.34;28.15
12951;BME280;6540;50.858;7.232;2023-04-04T02:18:31;51913.03;;;-142.34;28.16
12951;BME280;6540;50.858;7.232;2023-04-04T02:20:57;51937.25;;;-142.34;28.04
12951;BME280;6540;50.858;7.232;2023-04-04T02:23:23;51939.28;;;-142.34;27.67
12951;BME280;6540;50.858;7.232;2023-04-04T02:25:49;51931.19;;;-142.34;29.04
12951;BME280;6540;50.858;7.232;2023-04-04T02:28:15;51876.72;;;-142.34;28.61
12951;BME280;6540;50.858;7.232;2023-04-04T02:30:40;51913.03;;;-142.34;27.94
12951;BME280;6540;50.858;7.232;2023-04-04T02:33:06;51888.84;;;-142.34;26.85
12951;BME280;6540;50.858;7.232;2023-04-04T02:35:32;51907.00;;;-142.34;27.50
12951;BME280;6540;50.858;7.232;2023-04-04T02:37:57;51911.03;;;-142.34;27.08
12951;BME280;6540;50.858;7.232;2023-04-04T02:40:22;51947.34;;;-142.34;27.57
12951;BME280;6540;50.858;7.232;2023-04-04T02:42:48;51929.19;;;-142.34;27.28
12951;BME280;6540;50.858;7.232;2023-04-04T02:45:13;51923.13;;;-142.34;28.05
12951;BME280;6540;50.858;7.232;2023-04-04T02:47:39;51961.47;;;-142.34;26.96
12951;BME280;6540;50.858;7.232;2023-04-04T02:50:06;51939.28;;;-142.34;27.08
12951;BME280;6540;50.858;7.232;2023-04-04T02:52:32;51913.03;;;-142.34;27.77
12951;BME280;6540;50.858;7.232;2023-04-04T02:54:58;51935.25;;;-142.34;27.45
12951;BME280;6540;50.858;7.232;2023-04-04T02:57:23;51951.38;;;-142.34;26.97
12951;BME280;6540;50.858;7.232;2023-04-04T02:59:49;51907.00;;;-142.34;27.58
12951;BME280;6540;50.858;7.232;2023-04-04T03:02:14;51896.91;;;-142.34;28.34
12951;BME280;6540;50.858;7.232;2023-04-04T03:04:39;51921.13;;;-142.34;27.71
12951;BME280;6540;50.858;7.232;2023-04-04T03:07:05;51919.09;;;-142.34;27.44
12951;BME280;6540;50.858;7.232;2023-04-04T03:09:30;51933.22;;;-142.34;28.16
12951;BME280;6540;50.858;7.232;2023-04-04T03:11:55;51915.06;;;-142.34;28.95
12951;BME280;6540;50.858;7.232;2023-04-04T03:14:21;51902.97;;;-142.34;28.63
12951;BME280;6540;50.858;7.232;2023-04-04T03:16:47;51880.78;;;-142.34;27.73
12951;BME280;6540;50.858;7.232;2023-04-04T03:19:14;51911.03;;;-142.34;29.11
12951;BME280;6540;50.858;7.232;2023-04-04T03:21:40;51902.97;;;-142.34;29.39
12951;BME280;6540;50.858;7.232;2023-04-04T03:24:05;51907.00;;;-142.34;28.53
12951;BME280;6540;50.858;7.232;2023-04-04T03:26:31;51915.06;;;-142.34;27.37
12951;BME280;6540;50.858;7.232;2023-04-04T03:28:56;51911.03;;;-142.34;27.50
12951;BME280;6540;50.858;7.232;2023-04-04T03:31:21;51911.03;;;-142.34;27.70
12951;BME280;6540;50.858;7.232;2023-04-04T03:33:47;51931.19;;;-142.34;27.44
12951;BME280;6540;50.858;7.232;2023-04-04T03:36:13;51943.31;;;-142.34;27.86
12951;BME280;6540;50.858;7.232;2023-04-04T03:38:39;51947.34;;;-142.34;27.30
12951;BME280;6540;50.858;7.232;2023-04-04T03:41:06;51931.19;;;-142.34;27.24
12951;BME280;6540;50.858;7.232;2023-04-04T03:43:32;51919.09;;;-142.34;26.90
12951;BME280;6540;50.858;7.232;2023-04-04T03:46:01;51890.84;;;-142.34;27.73
12951;BME280;6540;50.858;7.232;2023-04-04T03:48:26;51951.38;;;-142.34;28.46
12951;BME280;6540;50.858;7.232;2023-04-04T03:50:52;51949.34;;;-142.34;29.24
12951;BME280;6540;50.858;7.232;2023-04-04T03:53:17;51929.19;;;-142.34;27.80
12951;BME280;6540;50.858;7.232;2023-04-04T03:55:43;51900.94;;;-142.34;28.51
12951;BME280;6540;50.858;7.232;2023-04-04T03:58:08;51919.09;;;-142.34;27.44
12951;BME280;6540;50.858;7.232;2023-04-04T04:00:33;51935.25;;;-142.34;27.12
12951;BME280;6540;50.858;7.232;2023-04-04T04:02:59;51915.06;;;-142.34;27.15
12951;BME280;6540;50.858;7.232;2023-04-04T04:05:25;51959.44;;;-142.34;27.48
12951;BME280;6540;50.858;7.232;2023-04-04T04:07:50;51923.13;;;-142.34;26.92
12951;BME280;6540;50.858;7.232;2023-04-04T04:10:17;51947.34;;;-142.34;26.27
12951;BME280;6540;50.858;7.232;2023-04-04T04:12:42;51927.16;;;-142.34;26.16
12951;BME280;6540;50.858;7.232;2023-04-04T04:15:07;51943.31;;;-142.34;26.59
12951;BME280;6540;50.858;7.232;2023-04-04T04:17:33;51951.38;;;-142.34;26.50
12951;BME280;6540;50.858;7.232;2023-04-04T04:19:58;51892.88;;;-142.34;26.78
12951;BME280;6540;50.858;7.232;2023-04-04T04:22:24;51963.47;;;-142.34;27.15
12951;BME280;6540;50.858;7.232;2023-04-04T04:24:49;51907.00;;;-142.34;28.39
12951;BME280;6540;50.858;7.232;2023-04-04T04:27:14;51917.06;;;-142.34;27.27
12951;BME280;6540;50.858;7.232;2023-04-04T04:29:40;51923.13;;;-142.34;26.90
12951;BME280;6540;50.858;7.232;2023-04-04T04:32:05;51927.16;;;-142.34;26.65
12951;BME280;6540;50.858;7.232;2023-04-04T04:34:30;51919.09;;;-142.34;26.69
12951;BME280;6540;50.858;7.232;2023-04-04T04:36:56;51925.16;;;-142.34;26.74
12951;BME280;6540;50.858;7.232;2023-04-04T04:39:22;51953.41;;;-142.34;26.39
12951;BME280;6540;50.858;7.232;2023-04-04T04:41:47;51923.13;;;-142.34;26.86
12951;BME280;6540;50.858;7.232;2023-04-04T04:44:12;51931.19;;;-142.34;26.85
12951;BME280;6540;50.858;7.232;2023-04-04T04:46:38;51931.19;;;-142.34;27.21
12951;BME280;6540;50.858;7.232;2023-04-04T04:49:03;51915.06;;;-142.34;26.96
12951;BME280;6540;50.858;7.232;2023-04-04T04:51:29;51959.44;;;-142.34;27.84
12951;BME280;6540;50.858;7.232;2023-04-04T04:53:55;51927.16;;;-142.34;28.49
12951;BME280;6540;50.858;7.232;2023-04-04T04:56:20;51900.94;;;-142.34;27.15
12951;BME280;6540;50.858;7.232;2023-04-04T04:58:46;51943.31;;;-142.34;27.33
12951;BME280;6540;50.858;7.232;2023-04-04T05:01:12;51927.16;;;-142.34;27.43
12951;BME280;6540;50.858;7.232;2023-04-04T05:03:38;51915.06;;;-142.34;26.81
12951;BME280;6540;50.858;7.232;2023-04-04T05:06:03;51939.28;;;-142.34;26.66
12951;BME280;6540;50.858;7.232;2023-04-04T05:08:29;51949.34;;;-142.34;26.92
12951;BME280;6540;50.858;7.232;2023-04-04T05:10:54;51904.97;;;-142.34;27.04
12951;BME280;6540;50.858;7.232;2023-04-04T05:13:19;51963.47;;;-142.34;27.10
12951;BME280;6540;50.858;7.232;2023-04-04T05:15:45;51951.38;;;-142.34;26.96
12951;BME280;6540;50.858;7.232;2023-04-04T05:18:11;51933.22;;;-142.34;27.39
12951;BME280;6540;50.858;7.232;2023-04-04T05:20:36;51923.13;;;-142.34;27.67
12951;BME280;6540;50.858;7.232;2023-04-04T05:23:01;51898.94;;;-142.34;27.45
12951;BME280;6540;50.858;7.232;2023-04-04T05:25:27;51933.22;;;-142.34;27.51
12951;BME280;6540;50.858;7.232;2023-04-04T05:27:53;51931.19;;;-142.34;27.32
12951;BME280;6540;50.858;7.232;2023-04-04T05:30:20;51935.25;;;-142.34;27.25
12951;BME280;6540;50.858;7.232;2023-04-04T05:32:45;51947.34;;;-142.34;27.71
12951;BME280;6540;50.858;7.232;2023-04-04T05:35:11;51949.34;;;-142.34;27.87
12951;BME280;6540;50.858;7.232;2023-04-04T05:37:40;51911.03;;;-142.34;28.12
12951;BME280;6540;50.858;7.232;2023-04-04T05:40:06;51870.69;;;-142.34;27.79
12951;BME280;6540;50.858;7.232;2023-04-04T05:42:32;51915.06;;;-142.34;27.71
12951;BME280;6540;50.858;7.232;2023-04-04T05:44:57;51923.13;;;-142.34;26.99
12951;BME280;6540;50.858;7.232;2023-04-04T05:47:22;51886.81;;;-142.34;27.37
12951;BME280;6540;50.858;7.232;2023-04-04T05:49:48;51937.25;;;-142.34;26.59
12951;BME280;6540;50.858;7.232;2023-04-04T05:52:13;51939.28;;;-142.34;26.58
12951;BME280;6540;50.858;7.232;2023-04-04T05:54:38;51933.22;;;-142.34;28.21
12951;BME280;6540;50.858;7.232;2023-04-04T05:57:04;51933.22;;;-142.34;27.56
12951;BME280;6540;50.858;7.232;2023-04-04T05:59:29;51955.41;;;-142.34;27.27
12951;BME280;6540;50.858;7.232;2023-04-04T06:01:55;51919.09;;;-142.34;26.92
12951;BME280;6540;50.858;7.232;2023-04-04T06:04:20;51955.41;;;-142.34;27.51
12951;BME280;6540;50.858;7.232;2023-04-04T06:06:45;51904.97;;;-142.34;27.75
12951;BME280;6540;50.858;7.232;2023-04-04T06:09:11;51945.31;;;-142.34;28.81
12951;BME280;6540;50.858;7.232;2023-04-04T06:11:36;51876.72;;;-142.34;30.05
12951;BME280;6540;50.858;7.232;2023-04-04T06:14:02;51911.03;;;-142.34;30.07
12951;BME280;6540;50.858;7.232;2023-04-04T06:16:27;51898.94;;;-142.34;28.30
12951;BME280;6540;50.858;7.232;2023-04-04T06:18:52;51904.97;;;-142.34;28.31
12951;BME280;6540;50.858;7.232;2023-04-04T06:21:18;51923.13;;;-142.34;29.38
12951;BME280;6540;50.858;7.232;2023-04-04T06:23:43;51931.19;;;-142.34;30.41
12951;BME280;6540;50.858;7.232;2023-04-04T06:26:08;51870.69;;;-142.34;28.92
12951;BME280;6540;50.858;7.232;2023-04-04T06:28:34;51894.88;;;-142.34;28.90
12951;BME280;6540;50.858;7.232;2023-04-04T06:30:59;51943.31;;;-142.34;28.53
12951;BME280;6540;50.858;7.232;2023-04-04T06:33:25;51937.25;;;-142.34;29.74
12951;BME280;6540;50.858;7.232;2023-04-04T06:35:50;51907.00;;;-142.34;28.97
12951;BME280;6540;50.858;7.232;2023-04-04T06:38:16;51907.00;;;-142.34;29.41
12951;BME280;6540;50.858;7.232;2023-04-04T06:40:41;51923.13;;;-142.34;29.62
12951;BME280;6540;50.858;7.232;2023-04-04T06:43:07;51951.38;;;-142.34;28.44
12951;BME280;6540;50.858;7.232;2023-04-04T06:45:33;51955.41;;;-142.34;28.63
12951;BME280;6540;50.858;7.232;2023-04-04T06:47:59;51949.34;;;-142.34;28.69
12951;BME280;6540;50.858;7.232;2023-04-04T06:50:25;51921.13;;;-142.34;28.00
12951;BME280;6540;50.858;7.232;2023-04-04T06:52:51;51907.00;;;-142.34;28.32
12951;BME280;6540;50.858;7.232;2023-04-04T06:55:17;51943.31;;;-142.34;26.92
12951;BME280;6540;50.858;7.232;2023-04-04T06:57:42;51977.59;;;-142.34;26.87
12951;BME280;6540;50.858;7.232;2023-04-04T07:00:08;51913.03;;;-142.34;27.68
12951;BME280;6540;50.858;7.232;2023-04-04T07:02:35;51927.16;;;-142.34;27.95
12951;BME280;6540;50.858;7.232;2023-04-04T07:05:01;51933.22;;;-142.34;27.79
12951;BME280;6540;50.858;7.232;2023-04-04T07:07:27;51902.97;;;-142.34;27.83
12951;BME280;6540;50.858;7.232;2023-04-04T07:09:54;51919.09;;;-142.34;27.43
12951;BME280;6540;50.858;7.232;2023-04-04T07:12:19;51923.13;;;-142.34;27.14
12951;BME280;6540;50.858;7.232;2023-04-04T07:14:45;51886.81;;;-142.34;28.02
12951;BME280;6540;50.858;7.232;2023-04-04T07:17:10;51925.16;;;-142.34;27.18
12951;BME280;6540;50.858;7.232;2023-04-04T07:19:35;51967.50;;;-142.34;27.27
12951;BME280;6540;50.858;7.232;2023-04-04T07:22:01;51921.13;;;-142.34;28.58
12951;BME280;6540;50.858;7.232;2023-04-04T07:24:34;51935.25;;;-142.34;26.88
12951;BME280;6540;50.858;7.232;2023-04-04T07:27:00;51927.16;;;-142.34;26.24
12951;BME280;6540;50.858;7.232;2023-04-04T07:29:25;51985.66;;;-142.34;26.71
12951;BME280;6540;50.858;7.232;2023-04-04T07:31:51;51935.25;;;-142.34;26.75
12951;BME280;6540;50.858;7.232;2023-04-04T07:34:16;51947.34;;;-142.34;26.55
12951;BME280;6540;50.858;7.232;2023-04-04T07:36:42;51935.25;;;-142.34;26.35
12951;BME280;6540;50.858;7.232;2023-04-04T07:39:07;51955.41;;;-142.34;25.68
12951;BME280;6540;50.858;7.232;2023-04-04T07:41:32;51973.56;;;-142.34;26.35
12951;BME280;6540;50.858;7.232;2023-04-04T07:43:58;51925.16;;;-142.34;25.85
12951;BME280;6540;50.858;7.232;2023-04-04T07:46:23;51933.22;;;-142.34;25.49
12951;BME280;6540;50.858;7.232;2023-04-04T07:48:49;51907.00;;;-142.34;26.54
12951;BME280;6540;50.858;7.232;2023-04-04T07:51:14;51925.16;;;-142.34;27.05
12951;BME280;6540;50.858;7.232;2023-04-04T07:53:40;51921.13;;;-142.34;26.67
12951;BME280;6540;50.858;7.232;2023-04-04T07:56:05;51927.16;;;-142.34;25.95
12951;BME280;6540;50.858;7.232;2023-04-04T07:58:34;51909.00;;;-142.34;25.73
12951;BME280;6540;50.858;7.232;2023-04-04T08:01:00;51937.25;;;-142.34;26.12
12951;BME280;6540;50.858;7.232;2023-04-04T08:03:28;51941.28;;;-142.34;25.82
12951;BME280;6540;50.858;7.232;2023-04-04T08:05:54;51947.34;;;-142.34;25.55
12951;BME280;6540;50.858;7.232;2023-04-04T08:08:22;51917.06;;;-142.34;24.95
12951;BME280;6540;50.858;7.232;2023-04-04T08:10:47;51951.38;;;-142.34;24.76
12951;BME280;6540;50.858;7.232;2023-04-04T08:13:13;51931.19;;;-142.34;24.79
12951;BME280;6540;50.858;7.232;2023-04-04T08:15:39;51955.41;;;-142.34;24.78
12951;BME280;6540;50.858;7.232;2023-04-04T08:18:04;51951.38;;;-142.34;24.67
12951;BME280;6540;50.858;7.232;2023-04-04T08:20:30;51913.03;;;-142.34;25.22
12951;BME280;6540;50.858;7.232;2023-04-04T08:22:55;51939.28;;;-142.34;24.92
12951;BME280;6540;50.858;7.232;2023-04-04T08:25:21;51917.06;;;-142.34;24.66
12951;BME280;6540;50.858;7.232;2023-04-04T08:27:47;51915.06;;;-142.34;24.61
12951;BME280;6540;50.858;7.232;2023-04-04T08:30:12;51951.38;;;-142.34;24.34
12951;BME280;6540;50.858;7.232;2023-04-04T08:32:41;51947.34;;;-142.34;24.37
12951;BME280;6540;50.858;7.232;2023-04-04T08:35:13;51943.31;;;-142.34;23.68
12951;BME280;6540;50.858;7.232;2023-04-04T08:37:43;51913.03;;;-142.34;24.98
12951;BME280;6540;50.858;7.232;2023-04-04T08:40:09;51917.06;;;-142.34;24.80
12951;BME280;6540;50.858;7.232;2023-04-04T08:42:34;51943.31;;;-142.34;24.05
12951;BME280;6540;50.858;7.232;2023-04-04T08:45:04;51923.13;;;-142.34;25.02
12951;BME280;6540;50.858;7.232;2023-04-04T08:47:32;51915.06;;;-142.34;25.13
12951;BME280;6540;50.858;7.232;2023-04-04T08:50:03;51890.84;;;-142.34;24.97
12951;BME280;6540;50.858;7.232;2023-04-04T08:52:40;51896.91;;;-142.34;23.97
12951;BME280;6540;50.858;7.232;2023-04-04T08:55:07;51902.97;;;-142.34;24.36
12951;BME280;6540;50.858;7.232;2023-04-04T08:57:34;51955.41;;;-142.34;23.70
12951;BME280;6540;50.858;7.232;2023-04-04T08:59:59;51947.34;;;-142.34;24.21
12951;BME280;6540;50.858;7.232;2023-04-04T09:02:32;51894.88;;;-142.34;24.89
12951;BME280;6540;50.858;7.232;2023-04-04T09:04:59;51898.94;;;-142.34;24.26
12951;BME280;6540;50.858;7.232;2023-04-04T09:07:26;51919.09;;;-142.34;25.05
12951;BME280;6540;50.858;7.232;2023-04-04T09:09:53;51931.19;;;-142.34;24.02
12951;BME280;6540;50.858;7.232;2023-04-04T09:12:21;51904.97;;;-142.34;23.78
12951;BME280;6540;50.858;7.232;2023-04-04T09:14:58;51896.91;;;-142.34;24.75
12951;BME280;6540;50.858;7.232;2023-04-04T09:17:27;51935.25;;;-142.34;23.88
12951;BME280;6540;50.858;7.232;2023-04-04T09:19:53;51953.41;;;-142.34;24.12
12951;BME280;6540;50.858;7.232;2023-04-04T09:22:19;51971.53;;;-142.34;23.60
12951;BME280;6540;50.858;7.232;2023-04-04T09:24:45;51967.50;;;-142.34;23.78
12951;BME280;6540;50.858;7.232;2023-04-04T09:27:15;51915.06;;;-142.34;23.53
12951;BME280;6540;50.858;7.232;2023-04-04T09:29:45;51943.31;;;-142.34;24.04
12951;BME280;6540;50.858;7.232;2023-04-04T09:32:14;51882.78;;;-142.34;24.36
12951;BME280;6540;50.858;7.232;2023-04-04T09:34:43;51907.00;;;-142.34;24.99
12951;BME280;6540;50.858;7.232;2023-04-04T09:37:15;51933.22;;;-142.34;24.86
12951;BME280;6540;50.858;7.232;2023-04-04T09:39:41;51911.03;;;-142.34;24.53
12951;BME280;6540;50.858;7.232;2023-04-04T09:42:07;51915.06;;;-142.34;23.02
12951;BME280;6540;50.858;7.232;2023-04-04T09:44:36;51892.88;;;-142.34;22.94
12951;BME280;6540;50.858;7.232;2023-04-04T09:49:52;51878.75;;;-142.34;23.48
12951;BME280;6540;50.858;7.232;2023-04-04T09:52:19;51892.88;;;-142.34;23.94
12951;BME280;6540;50.858;7.232;2023-04-04T09:55:04;51943.31;;;-142.34;24.15
12951;BME280;6540;50.858;7.232;2023-04-04T09:57:33;51874.72;;;-142.34;23.42
12951;BME280;6540;50.858;7.232;2023-04-04T10:00:00;51931.19;;;-142.34;24.44
12951;BME280;6540;50.858;7.232;2023-04-04T10:02:39;51935.25;;;-142.34;24.34
12951;BME280;6540;50.858;7.232;2023-04-04T10:05:19;51907.00;;;-142.34;24.53
12951;BME280;6540;50.858;7.232;2023-04-04T10:07:45;51935.25;;;-142.34;24.12
12951;BME280;6540;50.858;7.232;2023-04-04T10:10:12;51927.16;;;-142.34;24.79
12951;BME280;6540;50.858;7.232;2023-04-04T10:12:39;51890.84;;;-142.34;24.68
12951;BME280;6540;50.858;7.232;2023-04-04T10:15:05;51921.13;;;-142.34;23.51
12951;BME280;6540;50.858;7.232;2023-04-04T10:17:42;51904.97;;;-142.34;24.00
12951;BME280;6540;50.858;7.232;2023-04-04T10:20:08;51943.31;;;-142.34;23.09
12951;BME280;6540;50.858;7.232;2023-04-04T10:22:35;51915.06;;;-142.34;24.49
12951;BME280;6540;50.858;7.232;2023-04-04T10:25:03;51943.31;;;-142.34;23.09
12951;BME280;6540;50.858;7.232;2023-04-04T10:27:37;51878.75;;;-142.34;24.61
12951;BME280;6540;50.858;7.232;2023-04-04T10:30:03;51943.31;;;-142.34;23.48
12951;BME280;6540;50.858;7.232;2023-04-04T10:35:12;51900.94;;;-142.34;23.05
12951;BME280;6540;50.858;7.232;2023-04-04T10:37:59;51919.09;;;-142.34;23.28
12951;BME280;6540;50.858;7.232;2023-04-04T10:40:34;51947.34;;;-142.34;23.12
12951;BME280;6540;50.858;7.232;2023-04-04T10:43:04;51870.69;;;-142.34;23.30
12951;BME280;6540;50.858;7.232;2023-04-04T10:45:35;51917.06;;;-142.34;22.87
12951;BME280;6540;50.858;7.232;2023-04-04T10:48:03;51902.97;;;-142.34;23.73
12951;BME280;6540;50.858;7.232;2023-04-04T10:50:28;51913.03;;;-142.34;23.20
12951;BME280;6540;50.858;7.232;2023-04-04T10:52:56;51882.78;;;-142.34;23.77
12951;BME280;6540;50.858;7.232;2023-04-04T10:55:27;51937.25;;;-142.34;24.12
12951;BME280;6540;50.858;7.232;2023-04-04T10:57:53;51904.97;;;-142.34;23.47
12951;BME280;6540;50.858;7.232;2023-04-04T11:00:19;51870.69;;;-142.34;22.83
12951;BME280;6540;50.858;7.232;2023-04-04T11:05:36;51941.28;;;-142.34;22.44
12951;BME280;6540;50.858;7.232;2023-04-04T11:08:11;51900.94;;;-142.34;23.40
12951;BME280;6540;50.858;7.232;2023-04-04T11:13:30;51898.94;;;-142.34;23.07
12951;BME280;6540;50.858;7.232;2023-04-04T11:16:10;51896.91;;;-142.34;22.38
12951;BME280;6540;50.858;7.232;2023-04-04T11:19:00;51927.16;;;-142.34;21.43
12951;BME280;6540;50.858;7.232;2023-04-04T11:21:31;51915.06;;;-142.34;22.24
12951;BME280;6540;50.858;7.232;2023-04-04T11:28:55;51850.50;;;-142.34;22.54
12951;BME280;6540;50.858;7.232;2023-04-04T11:31:21;51919.09;;;-142.34;22.27
12951;BME280;6540;50.858;7.232;2023-04-04T11:36:47;51907.00;;;-142.34;22.42
12951;BME280;6540;50.858;7.232;2023-04-04T11:39:29;51933.22;;;-142.34;21.77
12951;BME280;6540;50.858;7.232;2023-04-04T11:42:06;51866.66;;;-142.34;22.08
12951;BME280;6540;50.858;7.232;2023-04-04T11:47:13;51890.84;;;-142.34;21.97
12951;BME280;6540;50.858;7.232;2023-04-04T11:49:42;51896.91;;;-142.34;21.78
12951;BME280;6540;50.858;7.232;2023-04-04T11:52:10;51882.78;;;-142.34;22.16
12951;BME280;6540;50.858;7.232;2023-04-04T11:54:37;51880.78;;;-142.34;22.78
12951;BME280;6540;50.858;7.232;2023-04-04T11:57:05;51876.72;;;-142.34;23.14
12951;BME280;6540;50.858;7.232;2023-04-04T11:59:31;51890.84;;;-142.34;22.59
12951;BME280;6540;50.858;7.232;2023-04-04T12:01:56;51923.13;;;-142.34;22.04
12951;BME280;6540;50.858;7.232;2023-04-04T12:04:24;51898.94;;;-142.34;21.79
12951;BME280;6540;50.858;7.232;2023-04-04T12:06:51;51902.97;;;-142.34;22.24
12951;BME280;6540;50.858;7.232;2023-04-04T12:09:18;51890.84;;;-142.34;21.67
12951;BME280;6540;50.858;7.232;2023-04-04T12:11:45;51890.84;;;-142.34;22.63
12951;BME280;6540;50.858;7.232;2023-04-04T12:14:18;51874.72;;;-142.34;23.26
12951;BME280;6540;50.858;7.232;2023-04-04T12:16:46;51864.63;;;-142.34;22.16
12951;BME280;6540;50.858;7.232;2023-04-04T12:19:12;51874.72;;;-142.34;22.33
12951;BME280;6540;50.858;7.232;2023-04-04T12:21:38;51911.03;;;-142.34;22.04
12951;BME280;6540;50.858;7.232;2023-04-04T12:24:05;51886.81;;;-142.34;22.65
12951;BME280;6540;50.858;7.232;2023-04-04T12:26:31;51911.03;;;-142.34;22.45
12951;BME280;6540;50.858;7.232;2023-04-04T12:28:57;51890.84;;;-142.34;21.66
12951;BME280;6540;50.858;7.232;2023-04-04T12:31:26;51943.31;;;-142.34;21.85
12951;BME280;6540;50.858;7.232;2023-04-04T12:33:52;51919.09;;;-142.34;21.42
12951;BME280;6540;50.858;7.232;2023-04-04T12:36:18;51870.69;;;-142.34;22.22
12951;BME280;6540;50.858;7.232;2023-04-04T12:41:24;51894.88;;;-142.34;22.77
12951;BME280;6540;50.858;7.232;2023-04-04T12:43:49;51878.75;;;-142.34;21.65
12951;BME280;6540;50.858;7.232;2023-04-04T12:46:15;51882.78;;;-142.34;21.71
12951;BME280;6540;50.858;7.232;2023-04-04T12:48:41;51824.28;;;-142.34;21.25
12951;BME280;6540;50.858;7.232;2023-04-04T12:51:06;51814.19;;;-142.34;21.52
12951;BME280;6540;50.858;7.232;2023-04-04T12:53:49;51842.44;;;-142.34;21.18
12951;BME280;6540;50.858;7.232;2023-04-04T12:56:16;51842.44;;;-142.34;21.82
12951;BME280;6540;50.858;7.232;2023-04-04T12:58:45;51802.09;;;-142.34;21.91
12951;BME280;6540;50.858;7.232;2023-04-04T13:01:14;51820.25;;;-142.34;22.07
12951;BME280;6540;50.858;7.232;2023-04-04T13:03:40;51866.66;;;-142.34;21.82
12951;BME280;6540;50.858;7.232;2023-04-04T13:06:15;51854.53;;;-142.34;21.57
12951;BME280;6540;50.858;7.232;2023-04-04T13:08:53;51818.22;;;-142.34;20.80
12951;BME280;6540;50.858;7.232;2023-04-04T13:11:19;51840.41;;;-142.34;21.05
12951;BME280;6540;50.858;7.232;2023-04-04T13:13:44;51810.16;;;-142.34;21.38
12951;BME280;6540;50.858;7.232;2023-04-04T13:16:28;51814.19;;;-142.34;21.72
12951;BME280;6540;50.858;7.232;2023-04-04T13:18:56;51838.41;;;-142.34;21.16